KMDD/MDD METAR and TAF weather

Enter ICAO airport designator
Station Type Date Time Source
KMDD METAR 2020/09/19 17:55 UTC NOAA

KMDD 191755Z AUTO 09006KT 10SM SCT046 24/12 A3023 RMK AO2 T02380124 10242 20141


Station Type Date Time Source
KMDD Decoded METAR 2020/09/19 17:55 UTC NOAA

Midland, Midland Airpark, TX, United States (KMDD) 32-02-11N 102-06-03W
Sep 19, 2020 - 01:55 PM EDT / 2020.09.19 1755 UTC
Wind: from the E (090 degrees) at 7 MPH (6 KT):0
Visibility: 10 mile(s):0
Sky conditions: partly cloudy
Temperature: 74.8 F (23.8 C)
Dew Point: 54.3 F (12.4 C)
Relative Humidity: 48%
Pressure (altimeter): 30.23 in. Hg (1023 hPa)
ob: KMDD 191755Z AUTO 09006KT 10SM SCT046 24/12 A3023 RMK AO2 T02380124 10242 20141
cycle: 18

Station Type Date Time Source
KMDD TAF UTC NOAA

Error!

Example: see airport list